GMFO/OUD METAR and TAF weather

Enter ICAO airport designator
Station Type Date Time Source
GMFO METAR 2021/01/27 14:00 UTC NOAA

GMFO 271400Z VRB05KT 9999 FEW016 SCT040 22/11 Q1025 NOSIG


Station Type Date Time Source
GMFO Decoded METAR 2021/01/27 14:00 UTC NOAA

Oujda, Morocco (GMFO) 34-47N 001-56W 470M
Jan 27, 2021 - 09:00 AM EST / 2021.01.27 1400 UTC
Wind: Variable at 6 MPH (5 KT):0
Visibility: greater than 7 mile(s):0
Sky conditions: partly cloudy
Temperature: 71 F (22 C)
Dew Point: 51 F (11 C)
Relative Humidity: 49%
Pressure (altimeter): 30.27 in. Hg (1025 hPa)
ob: GMFO 271400Z VRB05KT 9999 FEW016 SCT040 22/11 Q1025 NOSIG
cycle: 14

Station Type Date Time Source
GMFO TAF 2021/01/27 12:21 UTC NOAA

TAF TAF GMFO 271100Z 2712/2818 21010KT 9999 FEW013
BECMG 2718/2720 01005KT

Example: see airport list